Terminal Aerodrome Forecast
Issued by NWS Wilmington, NC

Home | Current Version | Previous Version | Text Only | Print | Product List | Glossary On
Versions: 1 2 3 4 5 6 7 8 9 10 11 12 13 14 15 16 17 18 19 20 21 22
688
FTUS42 KILM 251720
TAFILM
TAF
KILM 251720Z 2518/2618 25013G21KT P6SM VCSH BKN035
     FM252300 25008KT P6SM SCT045 BKN100
     FM260400 VRB04KT P6SM SCT060
     FM261500 11006KT P6SM BKN060=

USA.gov is the U.S. government's official web portal to all federal, state and local government web resources and services.